Time;durP1;ratioP1;P1;durP2;ratioP2;P2;SDS_P1;SDS_P2;PMS_P1;PMS_P2;Temp;Humidity;BMP_temperature;BMP_pressure;BME280_temperature;BME280_humidity;BME280_pressure;Samples;Min_cycle;Max_cycle;Signal;HPM_P1;HPM_P2
2021/06/30 00:00:57;;;;;;;43.17;22.57;;;16.10;95.60;;;;;;5004907;28;20198;-82
2021/06/30 00:03:23;;;;;;;40.23;21.40;;;16.10;95.50;;;;;;4989317;28;20209;-82
2021/06/30 00:05:48;;;;;;;38.77;21.10;;;16.20;95.40;;;;;;5011428;28;20525;-84
2021/06/30 00:08:14;;;;;;;34.03;18.90;;;16.20;95.20;;;;;;4988919;28;20179;-84
2021/06/30 00:10:42;;;;;;;34.10;19.10;;;16.10;94.90;;;;;;4987139;28;20442;-85
2021/06/30 00:13:09;;;;;;;36.45;20.27;;;15.90;94.80;;;;;;4987104;28;20198;-84
2021/06/30 00:15:36;;;;;;;32.22;19.23;;;15.90;95.00;;;;;;4986947;28;20195;-84
2021/06/30 00:18:03;;;;;;;31.70;18.23;;;15.90;95.10;;;;;;5003834;28;20311;-83
2021/06/30 00:20:28;;;;;;;32.53;19.95;;;15.90;95.00;;;;;;4993026;28;20202;-83
2021/06/30 00:22:54;;;;;;;35.07;20.30;;;15.90;94.90;;;;;;4987296;28;20246;-82
2021/06/30 00:25:21;;;;;;;30.87;21.13;;;15.90;95.00;;;;;;4988847;28;20647;-82
2021/06/30 00:27:48;;;;;;;32.33;20.20;;;15.80;94.70;;;;;;4986582;28;20563;-82
2021/06/30 00:30:15;;;;;;;34.45;21.85;;;15.70;94.50;;;;;;4986190;28;20194;-83
2021/06/30 00:32:41;;;;;;;40.22;21.23;;;15.80;94.60;;;;;;4970361;28;20207;-82
2021/06/30 00:35:07;;;;;;;42.47;23.10;;;15.90;94.80;;;;;;4987305;28;20187;-81
2021/06/30 00:37:33;;;;;;;43.67;23.15;;;15.90;95.20;;;;;;4987660;28;20549;-82
2021/06/30 00:39:59;;;;;;;56.40;25.50;;;15.90;95.70;;;;;;4988352;28;20230;-82
2021/06/30 00:42:30;;;;;;;48.57;23.70;;;16.00;96.40;;;;;;4987289;28;20264;-82
2021/06/30 00:44:56;;;;;;;45.75;25.63;;;16.00;96.80;;;;;;4988720;28;20414;-82
2021/06/30 00:47:22;;;;;;;52.10;24.70;;;16.10;97.00;;;;;;5006128;28;20193;-82
2021/06/30 00:49:48;;;;;;;53.05;25.88;;;16.00;97.10;;;;;;4987898;28;20190;-83
2021/06/30 00:52:14;;;;;;;48.53;25.25;;;16.10;97.10;;;;;;4988175;28;20214;-82
2021/06/30 00:54:40;;;;;;;50.53;25.13;;;16.10;97.00;;;;;;4989748;28;20183;-83
2021/06/30 00:57:09;;;;;;;52.30;26.90;;;16.10;96.90;;;;;;4989291;28;20458;-81
2021/06/30 00:59:36;;;;;;;51.25;26.55;;;16.20;96.60;;;;;;4990575;28;20179;-82
2021/06/30 01:02:03;;;;;;;65.72;28.30;;;16.30;96.30;;;;;;4994114;28;20219;-82
2021/06/30 01:04:28;;;;;;;56.60;27.98;;;16.30;96.00;;;;;;4994444;28;20159;-82
2021/06/30 01:06:54;;;;;;;57.07;26.90;;;16.30;95.30;;;;;;4991892;28;20258;-81
2021/06/30 01:09:20;;;;;;;61.07;28.97;;;16.30;95.00;;;;;;5010232;28;20445;-82
2021/06/30 01:11:46;;;;;;;55.23;27.53;;;16.30;94.80;;;;;;5009471;28;20442;-82
2021/06/30 01:14:22;;;;;;;55.55;26.33;;;16.40;94.70;;;;;;5008032;28;20187;-81
2021/06/30 01:16:48;;;;;;;59.15;27.85;;;16.50;94.30;;;;;;5009298;28;20214;-82
2021/06/30 01:19:19;;;;;;;65.47;28.80;;;16.40;94.30;;;;;;5005811;28;20210;-82
2021/06/30 01:21:45;;;;;;;67.15;29.98;;;16.40;94.10;;;;;;4989728;28;20199;-83
2021/06/30 01:24:11;;;;;;;64.43;28.57;;;16.30;94.20;;;;;;5007644;28;20186;-83
2021/06/30 01:26:36;;;;;;;77.50;28.87;;;16.20;93.70;;;;;;5005758;28;20172;-83
2021/06/30 01:29:02;;;;;;;59.47;27.37;;;16.20;93.40;;;;;;4987303;28;20307;-83
2021/06/30 01:31:28;;;;;;;56.73;27.00;;;16.20;93.40;;;;;;4987222;28;20230;-83
2021/06/30 01:33:54;;;;;;;67.73;30.23;;;16.10;93.80;;;;;;4989241;28;20429;-83
2021/06/30 01:36:20;;;;;;;68.77;27.33;;;16.10;94.20;;;;;;5003844;28;20190;-83
2021/06/30 01:38:45;;;;;;;70.18;30.05;;;16.00;93.80;;;;;;4987109;28;20306;-82
2021/06/30 01:41:14;;;;;;;80.33;33.77;;;15.90;93.60;;;;;;4986878;28;20206;-83
2021/06/30 01:43:40;;;;;;;59.63;29.02;;;15.90;93.90;;;;;;5004836;28;20335;-83
2021/06/30 01:46:06;;;;;;;70.03;30.00;;;16.00;94.20;;;;;;4987190;28;20189;-82
2021/06/30 01:48:32;;;;;;;75.13;36.50;;;16.00;94.30;;;;;;4986473;28;20180;-83
2021/06/30 01:50:59;;;;;;;60.33;29.25;;;16.10;94.70;;;;;;4985241;28;20207;-82
2021/06/30 01:53:24;;;;;;;42.88;22.67;;;16.10;94.50;;;;;;5004275;28;20175;-83
2021/06/30 01:55:50;;;;;;;31.87;18.87;;;15.90;92.50;;;;;;4986910;28;20187;-83
2021/06/30 01:58:21;;;;;;;33.77;18.90;;;15.80;92.70;;;;;;4986847;28;20209;-83
2021/06/30 02:00:52;;;;;;;33.88;19.58;;;15.80;92.60;;;;;;4986663;28;20677;-83
2021/06/30 02:03:18;;;;;;;38.78;19.45;;;15.80;92.10;;;;;;5004621;28;20191;-83
2021/06/30 02:05:44;;;;;;;44.28;19.95;;;15.80;91.70;;;;;;5002463;28;20182;-83
2021/06/30 02:08:10;;;;;;;46.13;20.25;;;15.70;91.80;;;;;;4987560;28;20240;-83
2021/06/30 02:10:36;;;;;;;29.15;15.77;;;15.70;91.60;;;;;;5004002;28;20205;-83
2021/06/30 02:13:02;;;;;;;22.47;13.90;;;15.60;90.90;;;;;;5008501;28;20190;-82
2021/06/30 02:15:30;;;;;;;24.67;15.15;;;15.60;90.00;;;;;;4993431;28;20179;-82
2021/06/30 02:17:58;;;;;;;22.88;12.80;;;15.40;90.40;;;;;;4995754;28;20207;-82
2021/06/30 02:20:25;;;;;;;24.83;12.98;;;15.40;91.00;;;;;;4993684;28;20201;-83
2021/06/30 02:22:52;;;;;;;21.50;13.02;;;15.20;91.00;;;;;;4988827;28;20686;-82
2021/06/30 02:25:21;;;;;;;23.02;14.05;;;15.20;92.10;;;;;;4987427;28;20187;-83
2021/06/30 02:27:48;;;;;;;26.65;13.43;;;15.20;92.70;;;;;;4987381;28;20198;-83
2021/06/30 02:30:32;;;;;;;25.92;15.02;;;15.20;93.10;;;;;;5004544;28;20188;-83
2021/06/30 02:33:00;;;;;;;27.17;15.07;;;15.20;94.00;;;;;;4992879;28;20226;-83
2021/06/30 02:35:27;;;;;;;27.67;19.08;;;15.30;94.30;;;;;;4996598;28;20193;-82
2021/06/30 02:37:55;;;;;;;32.00;17.02;;;15.30;94.50;;;;;;4996548;28;20207;-84
2021/06/30 02:40:24;;;;;;;32.80;16.25;;;15.30;94.60;;;;;;4997434;28;20191;-83
2021/06/30 02:42:50;;;;;;;28.40;15.88;;;15.30;94.60;;;;;;5016026;28;20203;-82
2021/06/30 02:45:18;;;;;;;35.58;17.98;;;15.30;95.30;;;;;;4992546;28;20309;-82
2021/06/30 02:47:45;;;;;;;31.15;16.70;;;15.30;94.50;;;;;;4987532;28;20183;-83
2021/06/30 02:50:13;;;;;;;33.05;17.70;;;15.20;94.10;;;;;;4987735;28;20189;-83
2021/06/30 02:52:39;;;;;;;36.95;20.10;;;15.30;94.40;;;;;;4986267;28;20217;-83
2021/06/30 02:55:06;;;;;;;38.08;19.00;;;15.20;94.20;;;;;;4987233;28;20176;-83
2021/06/30 02:57:32;;;;;;;35.92;17.95;;;15.20;94.20;;;;;;4987021;28;20333;-83
2021/06/30 02:59:57;;;;;;;38.83;18.80;;;15.20;94.10;;;;;;4988200;28;20194;-83
2021/06/30 03:02:23;;;;;;;32.40;15.40;;;15.10;94.00;;;;;;4986586;28;20301;-83
2021/06/30 03:04:49;;;;;;;20.33;14.27;;;15.10;93.80;;;;;;5004430;28;20187;-83
2021/06/30 03:07:15;;;;;;;28.63;15.90;;;15.10;94.10;;;;;;4988657;28;20238;-83
2021/06/30 03:09:40;;;;;;;22.57;12.83;;;15.20;93.90;;;;;;4993078;28;20183;-83
2021/06/30 03:12:07;;;;;;;26.03;13.90;;;15.20;94.10;;;;;;5015242;28;20207;-83
2021/06/30 03:14:32;;;;;;;28.00;15.55;;;15.20;94.50;;;;;;4990388;28;20234;-82
2021/06/30 03:16:58;;;;;;;26.13;13.47;;;15.30;94.90;;;;;;5005974;28;20670;-82
2021/06/30 03:19:24;;;;;;;32.20;15.82;;;15.30;95.10;;;;;;4988230;28;20185;-83
2021/06/30 03:21:50;;;;;;;34.17;16.50;;;15.40;95.20;;;;;;4986366;28;20693;-83
2021/06/30 03:24:16;;;;;;;26.93;15.10;;;15.40;95.30;;;;;;4996835;28;20176;-82
2021/06/30 03:26:42;;;;;;;32.90;16.00;;;15.40;95.40;;;;;;4991295;28;20186;-82
2021/06/30 03:29:07;;;;;;;36.77;18.17;;;15.50;95.50;;;;;;4988186;28;20235;-82
2021/06/30 03:31:34;;;;;;;29.80;15.93;;;15.40;95.40;;;;;;5007438;28;20435;-82
2021/06/30 03:34:00;;;;;;;23.80;12.20;;;15.50;95.40;;;;;;5007400;28;20414;-82
2021/06/30 03:36:26;;;;;;;23.27;13.43;;;15.40;95.10;;;;;;4991115;28;20195;-82
2021/06/30 03:38:51;;;;;;;25.07;13.43;;;15.30;95.10;;;;;;4991571;28;20183;-82
2021/06/30 03:41:17;;;;;;;20.33;12.07;;;15.20;94.80;;;;;;4988223;28;20206;-82
2021/06/30 03:43:43;;;;;;;22.25;12.43;;;15.20;94.50;;;;;;5001998;28;20186;-83
2021/06/30 03:46:10;;;;;;;23.80;14.10;;;15.20;94.50;;;;;;4982598;28;20567;-82
2021/06/30 03:48:36;;;;;;;23.60;12.10;;;15.20;94.60;;;;;;4987358;28;20866;-82
2021/06/30 03:51:03;;;;;;;24.05;14.60;;;15.30;94.80;;;;;;4988424;28;20206;-82
2021/06/30 03:53:29;;;;;;;30.45;13.18;;;15.30;94.90;;;;;;4988065;28;20180;-83
2021/06/30 03:55:54;;;;;;;22.47;12.60;;;15.30;95.00;;;;;;5006634;28;20187;-82
2021/06/30 03:58:20;;;;;;;30.40;13.20;;;15.30;94.80;;;;;;4988221;28;20215;-83
2021/06/30 04:00:46;;;;;;;29.63;15.67;;;15.30;94.60;;;;;;4987867;28;20176;-82
2021/06/30 04:03:12;;;;;;;25.13;13.40;;;15.30;94.50;;;;;;5006143;28;20206;-83
2021/06/30 04:05:38;;;;;;;25.43;13.67;;;15.30;94.40;;;;;;4989483;28;20410;-82
2021/06/30 04:08:10;;;;;;;21.57;13.23;;;15.30;94.50;;;;;;4994632;28;20612;-82
2021/06/30 04:10:37;;;;;;;23.20;11.45;;;15.20;94.10;;;;;;5008652;28;20832;-82
2021/06/30 04:13:04;;;;;;;24.45;10.88;;;15.20;93.70;;;;;;5009111;28;20202;-82
2021/06/30 04:15:31;;;;;;;18.77;12.00;;;15.10;93.40;;;;;;4990131;28;20250;-82
2021/06/30 04:17:59;;;;;;;24.23;12.82;;;15.10;93.70;;;;;;4990957;28;20207;-82
2021/06/30 04:20:26;;;;;;;20.02;11.63;;;15.20;94.00;;;;;;4990901;28;20176;-83
2021/06/30 04:22:51;;;;;;;26.15;11.98;;;15.20;94.00;;;;;;4991797;28;20231;-82
2021/06/30 04:25:17;;;;;;;24.77;13.17;;;15.20;94.60;;;;;;4991057;28;20191;-83
2021/06/30 04:27:43;;;;;;;23.13;12.57;;;15.20;93.80;;;;;;4992641;28;20180;-82
2021/06/30 04:30:10;;;;;;;21.37;12.80;;;15.20;94.00;;;;;;4995787;28;20195;-82
2021/06/30 04:32:37;;;;;;;21.52;13.30;;;15.30;94.30;;;;;;5005887;28;20218;-83
2021/06/30 04:35:04;;;;;;;24.20;14.55;;;15.30;94.70;;;;;;4988906;28;20674;-83
2021/06/30 04:37:30;;;;;;;31.33;15.60;;;15.40;94.90;;;;;;4988818;28;20209;-82
2021/06/30 04:39:56;;;;;;;28.80;15.80;;;15.50;95.20;;;;;;4988549;28;20215;-83
2021/06/30 04:42:21;;;;;;;33.17;17.17;;;15.50;95.40;;;;;;4989733;28;20481;-83
2021/06/30 04:44:47;;;;;;;38.80;18.10;;;15.40;95.20;;;;;;4987868;28;20272;-83
2021/06/30 04:47:13;;;;;;;35.10;15.00;;;15.40;95.00;;;;;;5005313;28;20175;-82
2021/06/30 04:49:39;;;;;;;30.60;18.03;;;15.40;95.00;;;;;;4987144;28;20333;-83
2021/06/30 04:52:05;;;;;;;37.57;18.87;;;15.40;95.00;;;;;;4987261;28;20203;-83
2021/06/30 04:54:30;;;;;;;47.08;22.83;;;15.50;95.20;;;;;;4987524;28;20426;-83
2021/06/30 04:56:56;;;;;;;46.33;21.03;;;15.50;95.10;;;;;;4987552;28;20574;-83
2021/06/30 04:59:23;;;;;;;47.93;21.90;;;15.50;94.90;;;;;;5006816;28;20183;-83
2021/06/30 05:01:49;;;;;;;42.80;20.73;;;15.40;94.50;;;;;;5004145;28;20207;-83
2021/06/30 05:04:16;;;;;;;46.33;23.10;;;15.40;94.00;;;;;;4992110;28;20198;-82
2021/06/30 05:06:42;;;;;;;58.55;22.58;;;15.40;94.20;;;;;;5005873;28;20186;-82
2021/06/30 05:09:07;;;;;;;47.40;21.73;;;15.60;94.40;;;;;;4985691;28;20179;-83
2021/06/30 05:11:33;;;;;;;54.60;23.23;;;15.60;94.30;;;;;;4985226;28;20453;-83
2021/06/30 05:13:59;;;;;;;50.10;21.73;;;15.60;94.40;;;;;;4985918;28;20210;-83
2021/06/30 05:16:25;;;;;;;46.93;23.57;;;15.60;94.60;;;;;;4984812;28;20191;-83
2021/06/30 05:18:52;;;;;;;53.22;23.48;;;15.60;94.70;;;;;;4982708;28;20183;-83
2021/06/30 05:21:18;;;;;;;49.22;22.40;;;15.50;94.80;;;;;;5000782;28;20187;-84
2021/06/30 05:23:44;;;;;;;52.05;23.83;;;15.50;95.10;;;;;;4984961;28;20179;-83
2021/06/30 05:26:10;;;;;;;49.73;22.47;;;15.50;95.10;;;;;;5005028;28;20633;-82
2021/06/30 05:28:36;;;;;;;48.40;22.13;;;15.40;94.20;;;;;;4987044;28;20787;-82
2021/06/30 05:31:02;;;;;;;41.70;21.20;;;15.50;94.40;;;;;;5003884;28;20434;-83
2021/06/30 05:33:28;;;;;;;53.73;22.70;;;15.50;94.70;;;;;;4988097;28;20423;-83
2021/06/30 05:35:55;;;;;;;57.53;23.13;;;15.40;94.30;;;;;;4993348;28;20179;-82
2021/06/30 05:38:25;;;;;;;49.10;20.35;;;15.40;94.20;;;;;;4989677;28;20218;-83
2021/06/30 05:40:51;;;;;;;48.75;22.35;;;15.40;94.40;;;;;;5003866;28;20199;-82
2021/06/30 05:43:17;;;;;;;39.17;20.35;;;15.30;95.10;;;;;;4985817;28;20190;-83
2021/06/30 05:45:43;;;;;;;41.58;19.80;;;15.40;94.70;;;;;;4984385;28;20171;-83
2021/06/30 05:48:09;;;;;;;38.92;18.85;;;15.30;95.00;;;;;;4983236;28;20285;-83
2021/06/30 05:50:35;;;;;;;36.77;16.80;;;15.20;95.20;;;;;;4978471;28;20206;-84
2021/06/30 05:53:01;;;;;;;38.10;20.63;;;15.20;95.50;;;;;;4981104;28;20597;-83
2021/06/30 05:55:27;;;;;;;46.80;19.10;;;15.20;95.70;;;;;;4998053;28;20934;-84
2021/06/30 05:57:53;;;;;;;35.50;18.15;;;15.20;95.70;;;;;;4979741;28;21007;-84
2021/06/30 06:00:21;;;;;;;33.13;18.43;;;15.10;95.70;;;;;;4993438;28;20289;-84
2021/06/30 06:02:48;;;;;;;34.53;18.08;;;15.20;95.80;;;;;;5020796;28;20445;-84
2021/06/30 06:05:14;;;;;;;38.33;18.88;;;15.10;95.90;;;;;;5015525;28;20279;-84
2021/06/30 06:07:39;;;;;;;46.97;21.80;;;15.20;95.90;;;;;;4997559;28;20185;-84
2021/06/30 06:10:07;;;;;;;49.97;21.37;;;15.20;95.60;;;;;;4998177;28;20182;-84
2021/06/30 06:12:33;;;;;;;40.92;18.58;;;15.20;95.50;;;;;;5015181;28;20245;-85
2021/06/30 06:14:59;;;;;;;38.27;18.00;;;15.10;95.30;;;;;;4998806;28;20187;-84
2021/06/30 06:17:25;;;;;;;37.60;18.80;;;15.10;95.10;;;;;;5001792;28;21049;-85
2021/06/30 06:19:51;;;;;;;37.77;17.90;;;15.00;94.80;;;;;;5002660;28;20186;-84
2021/06/30 06:22:16;;;;;;;37.13;18.40;;;15.10;94.90;;;;;;5020463;28;20429;-85
2021/06/30 06:24:43;;;;;;;36.73;18.30;;;15.20;95.00;;;;;;5020002;28;20401;-85
2021/06/30 06:27:08;;;;;;;45.55;18.98;;;15.20;95.00;;;;;;5020375;28;20424;-84
2021/06/30 06:29:35;;;;;;;39.70;18.40;;;15.20;95.00;;;;;;5003344;28;20194;-84
2021/06/30 06:32:01;;;;;;;38.97;16.63;;;15.30;95.10;;;;;;5019523;28;20202;-84
2021/06/30 06:34:28;;;;;;;45.03;18.60;;;15.40;95.00;;;;;;5002528;28;20179;-85
2021/06/30 06:36:54;;;;;;;41.05;20.95;;;15.40;95.00;;;;;;5003472;28;20226;-84
2021/06/30 06:39:21;;;;;;;44.72;20.17;;;15.40;94.80;;;;;;5000604;28;20289;-84
2021/06/30 06:41:47;;;;;;;29.15;14.70;;;15.40;94.80;;;;;;5008027;28;20191;-84
2021/06/30 06:44:13;;;;;;;33.03;15.98;;;15.40;94.60;;;;;;5002994;28;20183;-84
2021/06/30 06:46:39;;;;;;;33.67;17.65;;;15.50;94.60;;;;;;4985131;28;20261;-85
2021/06/30 06:49:09;;;;;;;43.83;18.52;;;15.60;94.10;;;;;;4985168;28;20187;-85
2021/06/30 06:51:39;;;;;;;42.58;17.15;;;15.50;93.80;;;;;;4991442;28;20194;-84
2021/06/30 06:54:06;;;;;;;32.45;15.18;;;15.60;94.00;;;;;;4992477;28;20204;-84
2021/06/30 06:56:33;;;;;;;38.65;23.00;;;15.60;94.10;;;;;;4998100;28;20251;-84
2021/06/30 06:58:59;;;;;;;33.83;17.13;;;15.60;94.30;;;;;;5004986;28;20179;-85
2021/06/30 07:01:25;;;;;;;32.22;17.48;;;15.70;94.40;;;;;;4986122;28;20697;-84
2021/06/30 07:03:51;;;;;;;34.38;17.75;;;15.80;94.20;;;;;;4985992;28;20612;-85
2021/06/30 07:06:18;;;;;;;37.92;18.35;;;16.00;94.20;;;;;;5002283;28;20506;-85
2021/06/30 07:08:44;;;;;;;37.95;20.05;;;16.00;93.90;;;;;;4985200;28;20184;-85
2021/06/30 07:11:11;;;;;;;37.88;19.35;;;16.10;93.50;;;;;;4984251;28;20227;-85
2021/06/30 07:13:38;;;;;;;33.58;19.90;;;16.10;93.00;;;;;;5000494;28;20180;-85
2021/06/30 07:16:05;;;;;;;36.13;19.52;;;16.10;92.50;;;;;;4981428;28;20179;-85
2021/06/30 07:18:32;;;;;;;33.78;19.88;;;16.20;92.00;;;;;;4983781;28;20207;-84
2021/06/30 07:20:58;;;;;;;28.85;17.27;;;16.20;91.60;;;;;;4981766;28;20230;-84
2021/06/30 07:23:24;;;;;;;30.60;18.33;;;16.10;90.80;;;;;;5000171;28;20176;-84
2021/06/30 07:25:53;;;;;;;31.83;19.23;;;16.10;90.80;;;;;;4984452;28;20198;-83
2021/06/30 07:28:18;;;;;;;36.00;20.00;;;16.10;90.90;;;;;;4986195;28;20426;-82
2021/06/30 07:30:44;;;;;;;34.47;19.73;;;16.00;91.10;;;;;;4988223;28;20195;-83
2021/06/30 07:33:10;;;;;;;27.13;15.17;;;16.00;91.20;;;;;;5005018;28;20239;-83
2021/06/30 07:35:36;;;;;;;26.17;15.70;;;16.00;91.00;;;;;;4986803;28;20430;-83
2021/06/30 07:38:02;;;;;;;23.60;13.87;;;16.00;91.00;;;;;;4986653;28;20203;-83
2021/06/30 07:40:28;;;;;;;29.60;14.75;;;16.00;91.20;;;;;;4986076;28;20194;-83
2021/06/30 07:42:54;;;;;;;30.45;16.33;;;16.00;91.10;;;;;;4988576;28;20579;-83
2021/06/30 07:45:20;;;;;;;24.85;14.35;;;16.10;91.20;;;;;;4994996;28;20190;-84
2021/06/30 07:47:46;;;;;;;19.88;13.50;;;16.10;91.10;;;;;;4994407;28;20254;-84
2021/06/30 07:50:12;;;;;;;21.50;13.40;;;16.10;91.10;;;;;;5008878;28;20183;-84
2021/06/30 07:52:38;;;;;;;26.80;14.23;;;16.00;91.00;;;;;;5010912;28;20433;-84
2021/06/30 07:55:05;;;;;;;21.30;13.07;;;16.10;91.30;;;;;;5028289;28;20185;-84
2021/06/30 07:57:31;;;;;;;20.15;11.77;;;16.10;91.50;;;;;;5014231;28;20202;-84
2021/06/30 07:59:56;;;;;;;30.80;14.00;;;16.10;91.40;;;;;;5009093;28;20182;-84
2021/06/30 08:02:22;;;;;;;21.77;11.40;;;16.10;91.50;;;;;;5004909;28;20264;-83
2021/06/30 08:04:48;;;;;;;22.60;13.00;;;16.10;91.50;;;;;;5004298;28;20190;-85
2021/06/30 08:07:13;;;;;;;24.10;15.80;;;16.10;91.70;;;;;;5017254;28;20186;-84
2021/06/30 08:09:39;;;;;;;23.97;14.20;;;16.10;91.60;;;;;;5000891;28;20206;-84
2021/06/30 08:12:06;;;;;;;26.13;14.77;;;16.00;91.40;;;;;;4999351;28;20252;-85
2021/06/30 08:14:33;;;;;;;24.48;14.98;;;16.10;91.70;;;;;;5000489;28;20657;-85
2021/06/30 08:16:59;;;;;;;22.33;15.15;;;16.00;91.60;;;;;;5001480;28;20214;-84
2021/06/30 08:19:25;;;;;;;22.80;15.30;;;16.00;91.60;;;;;;4981925;28;20544;-84
2021/06/30 08:21:52;;;;;;;23.93;15.27;;;16.00;91.70;;;;;;4984051;28;20202;-85
2021/06/30 08:24:18;;;;;;;24.73;16.33;;;16.10;91.80;;;;;;4985276;28;20465;-85
2021/06/30 08:26:45;;;;;;;28.10;15.87;;;16.10;91.90;;;;;;5002891;28;20179;-84
2021/06/30 08:29:11;;;;;;;29.02;15.82;;;16.10;91.90;;;;;;4984805;28;20179;-85
2021/06/30 08:31:37;;;;;;;24.25;15.65;;;16.10;91.80;;;;;;4981230;28;20214;-85
2021/06/30 08:34:02;;;;;;;24.93;14.33;;;16.20;91.40;;;;;;4997280;28;20179;-85
2021/06/30 08:36:28;;;;;;;27.30;18.00;;;16.20;90.30;;;;;;4980387;28;20183;-85
2021/06/30 08:38:54;;;;;;;29.20;17.50;;;16.30;89.70;;;;;;4979967;28;20185;-86
2021/06/30 08:41:21;;;;;;;33.33;18.60;;;16.30;89.70;;;;;;4978806;28;20199;-86
2021/06/30 08:43:46;;;;;;;36.10;20.85;;;16.20;89.80;;;;;;4995999;28;20709;-86
2021/06/30 08:46:20;;;;;;;27.93;18.63;;;16.20;89.60;;;;;;4987714;28;20214;-85
2021/06/30 08:48:47;;;;;;;33.47;17.92;;;16.30;90.00;;;;;;4988267;28;20187;-85
2021/06/30 08:51:16;;;;;;;27.77;16.33;;;16.40;90.30;;;;;;4981089;28;20203;-85
2021/06/30 08:53:46;;;;;;;31.25;16.25;;;16.40;90.50;;;;;;4980741;28;20213;-85
2021/06/30 08:56:13;;;;;;;24.67;15.15;;;16.40;90.70;;;;;;4996518;28;20241;-85
2021/06/30 08:58:39;;;;;;;20.10;14.02;;;16.40;90.80;;;;;;4979583;28;20242;-85
2021/06/30 09:01:04;;;;;;;23.07;13.83;;;16.50;91.00;;;;;;4979617;28;20199;-85
2021/06/30 09:03:31;;;;;;;20.67;12.97;;;16.40;90.90;;;;;;4979871;28;20281;-85
2021/06/30 09:08:42;;;;;;;23.70;14.30;;;16.20;91.10;;;;;;4996734;28;20221;-86
2021/06/30 09:11:15;;;;;;;19.42;13.02;;;16.50;90.90;;;;;;4978338;28;20430;-86
2021/06/30 09:13:42;;;;;;;23.70;13.18;;;16.70;90.30;;;;;;4978538;28;20235;-86
2021/06/30 09:16:08;;;;;;;21.95;13.75;;;16.50;90.40;;;;;;4978067;28;20187;-86
2021/06/30 09:18:39;;;;;;;22.08;10.90;;;16.40;90.40;;;;;;4978100;28;20242;-86
2021/06/30 09:21:20;;;;;;;14.43;9.45;;;16.40;90.10;;;;;;4980061;28;20199;-87
2021/06/30 09:24:18;;;;;;;13.77;9.30;;;16.20;89.20;;;;;;4978723;28;20186;-86
2021/06/30 09:26:49;;;;;;;11.60;8.55;;;16.10;89.80;;;;;;4977817;28;20182;-86
2021/06/30 09:29:16;;;;;;;11.10;8.05;;;16.10;90.50;;;;;;4977943;28;20709;-86
2021/06/30 09:31:45;;;;;;;14.73;7.90;;;16.20;91.20;;;;;;4977954;28;20207;-86
2021/06/30 09:34:11;;;;;;;14.90;7.93;;;16.30;91.60;;;;;;4995686;28;20205;-86
2021/06/30 09:36:44;;;;;;;7.70;6.40;;;16.30;91.50;;;;;;4978740;28;20674;-85
2021/06/30 09:39:11;;;;;;;13.68;7.50;;;16.40;90.70;;;;;;4978878;28;20430;-86
2021/06/30 09:41:39;;;;;;;8.93;6.25;;;16.40;89.10;;;;;;4985175;28;20671;-87
2021/06/30 09:44:14;;;;;;;10.98;7.25;;;16.50;89.00;;;;;;4979044;28;20617;-87
2021/06/30 09:46:42;;;;;;;8.77;7.30;;;16.50;88.80;;;;;;4978048;28;20217;-86
2021/06/30 09:49:10;;;;;;;11.90;8.57;;;16.60;89.00;;;;;;4995279;28;20210;-87
2021/06/30 09:51:38;;;;;;;14.68;8.48;;;16.50;89.40;;;;;;4998717;28;20203;-87
2021/06/30 09:54:04;;;;;;;15.20;8.57;;;16.80;89.10;;;;;;5000552;28;20237;-86
2021/06/30 09:56:36;;;;;;;15.30;8.83;;;16.90;89.10;;;;;;4982624;28;20702;-86
2021/06/30 09:59:14;;;;;;;20.75;8.73;;;16.90;89.30;;;;;;4982388;28;20201;-86
2021/06/30 10:01:41;;;;;;;14.30;9.68;;;16.80;89.10;;;;;;4981921;28;20210;-86
2021/06/30 10:04:09;;;;;;;16.88;9.30;;;16.90;89.30;;;;;;4982319;28;20186;-86
2021/06/30 10:06:37;;;;;;;12.90;8.85;;;17.00;89.40;;;;;;4981621;28;20190;-86
2021/06/30 10:09:06;;;;;;;12.63;8.80;;;17.00;89.10;;;;;;4982044;28;20186;-86
2021/06/30 10:11:34;;;;;;;15.43;8.52;;;16.80;87.90;;;;;;4982046;28;20206;-86
2021/06/30 10:14:01;;;;;;;16.88;9.70;;;16.70;87.10;;;;;;5001280;28;20207;-85
2021/06/30 10:16:27;;;;;;;15.75;10.27;;;16.60;87.20;;;;;;4985360;28;20631;-85
2021/06/30 10:18:55;;;;;;;14.90;10.57;;;16.60;87.60;;;;;;4982630;28;20283;-85
2021/06/30 10:21:23;;;;;;;18.33;10.90;;;16.60;87.60;;;;;;4998824;28;20199;-86
2021/06/30 10:23:51;;;;;;;18.58;11.57;;;16.60;87.60;;;;;;4981896;28;20182;-86
2021/06/30 10:26:19;;;;;;;15.65;9.65;;;16.70;85.50;;;;;;4961872;28;20199;-86
2021/06/30 10:29:00;;;;;;;10.05;8.48;;;16.80;85.80;;;;;;4961842;28;20188;-86
2021/06/30 10:31:34;;;;;;;11.95;9.50;;;16.80;86.20;;;;;;4978236;28;20228;-86
2021/06/30 10:34:03;;;;;;;16.83;10.73;;;16.70;86.10;;;;;;4977884;28;20254;-86
2021/06/30 10:36:49;;;;;;;17.63;11.85;;;16.90;86.60;;;;;;4966635;28;20194;-86
2021/06/30 10:39:38;;;;;;;15.50;10.65;;;17.10;86.20;;;;;;4963645;28;20180;-86
2021/06/30 10:42:33;;;;;;;14.55;9.70;;;17.30;86.10;;;;;;4961591;28;20208;-87
2021/06/30 10:45:17;;;;;;;19.73;11.45;;;17.40;86.60;;;;;;4956881;28;20207;-86
2021/06/30 10:47:46;;;;;;;22.27;11.32;;;17.40;86.50;;;;;;4979624;28;20207;-86
2021/06/30 10:50:23;;;;;;;16.08;11.70;;;17.20;86.70;;;;;;4995741;28;20538;-86
2021/06/30 10:52:53;;;;;;;20.77;12.05;;;17.10;87.20;;;;;;4981810;28;20199;-86
2021/06/30 10:55:51;;;;;;;22.33;12.05;;;17.10;87.50;;;;;;4982886;28;20558;-85
2021/06/30 10:58:26;;;;;;;24.85;12.73;;;17.10;87.80;;;;;;4985601;28;20183;-86
2021/06/30 11:00:54;;;;;;;22.58;13.50;;;16.90;87.10;;;;;;5000459;28;20198;-86
2021/06/30 11:03:33;;;;;;;17.88;11.63;;;16.70;86.20;;;;;;4982573;28;20724;-86
2021/06/30 11:06:09;;;;;;;18.23;12.60;;;16.80;86.60;;;;;;4983114;28;20230;-86
2021/06/30 11:09:00;;;;;;;23.30;11.88;;;16.60;86.90;;;;;;4984307;28;20577;-86
2021/06/30 11:11:35;;;;;;;14.07;11.32;;;16.60;88.30;;;;;;4984674;28;20195;-86
2021/06/30 11:14:05;;;;;;;15.38;9.85;;;16.50;89.40;;;;;;5000830;28;20610;-86
2021/06/30 11:16:37;;;;;;;16.92;11.90;;;16.50;90.10;;;;;;4982279;28;20195;-86
2021/06/30 11:19:18;;;;;;;22.58;12.70;;;16.50;90.60;;;;;;4995599;28;20262;-86
2021/06/30 11:21:48;;;;;;;22.23;11.48;;;16.50;91.20;;;;;;4999794;28;20210;-87
2021/06/30 11:24:32;;;;;;;23.40;12.43;;;16.50;91.40;;;;;;5000424;28;20210;-85
2021/06/30 11:26:58;;;;;;;20.60;11.80;;;16.50;91.40;;;;;;4992137;28;20187;-86
2021/06/30 11:29:42;;;;;;;14.10;10.23;;;16.40;90.90;;;;;;5016021;28;20240;-87
2021/06/30 11:32:42;;;;;;;15.77;11.13;;;16.30;90.90;;;;;;4997525;28;20211;-85
2021/06/30 11:35:16;;;;;;;14.50;9.98;;;16.40;90.90;;;;;;4994795;28;20179;-86
2021/06/30 11:37:44;;;;;;;13.95;9.57;;;16.30;90.80;;;;;;4985722;28;20203;-85
2021/06/30 11:40:21;;;;;;;13.27;9.18;;;16.20;90.30;;;;;;4981378;28;20186;-85
2021/06/30 11:42:50;;;;;;;11.27;8.38;;;16.20;90.80;;;;;;4981196;28;20214;-85
2021/06/30 11:45:26;;;;;;;10.65;8.10;;;16.20;90.80;;;;;;4981154;28;20658;-85
2021/06/30 11:47:54;;;;;;;15.13;8.02;;;16.30;91.10;;;;;;4980503;28;20187;-86
2021/06/30 11:50:22;;;;;;;17.33;9.20;;;16.50;91.30;;;;;;4998583;28;20190;-86
2021/06/30 11:52:49;;;;;;;16.35;8.65;;;16.50;91.30;;;;;;4981385;28;20200;-86
2021/06/30 11:55:19;;;;;;;18.10;8.30;;;16.60;91.20;;;;;;4981004;28;20183;-86
2021/06/30 11:57:59;;;;;;;12.65;9.23;;;16.70;90.90;;;;;;4980376;28;20212;-85
2021/06/30 12:00:28;;;;;;;20.15;9.02;;;16.70;90.50;;;;;;4980174;28;20587;-86
2021/06/30 12:03:02;;;;;;;22.63;10.50;;;16.80;89.90;;;;;;5010947;28;20219;-85
2021/06/30 12:05:30;;;;;;;10.35;8.00;;;16.70;89.50;;;;;;4984660;28;20649;-85
2021/06/30 12:07:57;;;;;;;13.07;8.65;;;16.60;88.60;;;;;;4986621;28;20187;-85
2021/06/30 12:10:25;;;;;;;13.48;7.15;;;16.70;88.00;;;;;;4981036;28;20195;-85
2021/06/30 12:12:52;;;;;;;10.82;7.88;;;16.60;88.00;;;;;;4991950;28;20203;-85
2021/06/30 12:15:19;;;;;;;9.30;6.75;;;16.70;87.70;;;;;;4984988;28;20187;-85
2021/06/30 12:17:50;;;;;;;10.05;6.40;;;16.60;87.00;;;;;;4981899;28;20207;-85
2021/06/30 12:20:19;;;;;;;11.27;6.40;;;16.70;86.90;;;;;;4986355;28;20175;-87
2021/06/30 12:22:46;;;;;;;8.45;6.03;;;16.80;87.40;;;;;;4978191;28;20274;-85
2021/06/30 12:25:25;;;;;;;10.13;5.85;;;16.70;86.60;;;;;;4982559;28;20179;-85
2021/06/30 12:28:11;;;;;;;9.57;5.45;;;16.60;86.40;;;;;;4985660;28;20217;-84
2021/06/30 12:30:37;;;;;;;9.18;5.93;;;16.60;87.40;;;;;;4992165;28;20222;-85
2021/06/30 12:33:09;;;;;;;7.97;6.10;;;16.70;87.30;;;;;;4989209;28;20557;-85
2021/06/30 12:35:38;;;;;;;9.45;5.75;;;16.80;86.30;;;;;;5006136;28;20677;-85